Terminal Aerodrome Forecast
Issued by NWS

Home | Current Version | Previous Version | Text Only | Print | Product List | Glossary On
Versions: 1 2 3 4 5 6 7 8 9 10 11 12 13 14 15 16 17 18 19 20 21 22 23 24
000
FTUS42 KGSP 300236 AAB
TAFHKY
TAF AMD
KHKY 300236Z 3003/3024 VRB03KT 5SM TSRA BR OVC010CB
      TEMPO 3003/3004 1SM BR SCT010 OVC040
     FM300400 VRB02KT 5SM BR BKN010
      TEMPO 3010/3012 1 1/2SM BR BKN005
     FM301400 19004KT P6SM FEW020
     FM301600 20006KT P6SM FEW040=

USA.gov is the U.S. government's official web portal to all federal, state and local government web resources and services.